createdAt,value
2023-01-22T00:01:04.750Z,31.92
2023-01-22T00:03:31.993Z,30.45
2023-01-22T00:05:58.806Z,30.70
2023-01-22T00:08:25.585Z,31.08
2023-01-22T00:10:53.493Z,29.98
2023-01-22T00:13:22.034Z,32.88
2023-01-22T00:15:49.303Z,29.45
2023-01-22T00:18:17.092Z,31.02
2023-01-22T00:20:51.673Z,29.95
2023-01-22T00:23:19.076Z,27.45
2023-01-22T00:25:46.648Z,27.45
2023-01-22T00:28:13.543Z,27.77
2023-01-22T00:30:40.271Z,26.15
2023-01-22T00:33:07.127Z,25.42
2023-01-22T00:35:37.052Z,25.90
2023-01-22T00:38:04.218Z,25.85
2023-01-22T00:40:31.001Z,24.75
2023-01-22T00:42:57.817Z,24.45
2023-01-22T00:45:24.664Z,23.92
2023-01-22T00:47:52.108Z,25.05
2023-01-22T00:50:19.539Z,24.25
2023-01-22T00:52:46.689Z,22.00
2023-01-22T00:55:13.503Z,25.00
2023-01-22T00:57:40.273Z,25.75
2023-01-22T01:00:07.802Z,25.02
2023-01-22T01:02:54.574Z,26.35
2023-01-22T01:05:21.397Z,25.15
2023-01-22T01:07:48.203Z,26.98
2023-01-22T01:10:15.312Z,26.95
2023-01-22T01:12:42.107Z,25.65
2023-01-22T01:15:09.745Z,27.55
2023-01-22T01:17:36.773Z,28.38
2023-01-22T01:20:03.884Z,26.25
2023-01-22T01:22:30.745Z,26.60
2023-01-22T01:24:57.613Z,27.92
2023-01-22T01:27:24.430Z,26.20
2023-01-22T01:29:51.297Z,27.55
2023-01-22T01:32:18.016Z,27.95
2023-01-22T01:34:45.668Z,26.58
2023-01-22T01:37:12.511Z,29.33
2023-01-22T01:39:39.276Z,26.65
2023-01-22T01:42:06.133Z,26.00
2023-01-22T01:44:33.276Z,26.55
2023-01-22T01:47:05.843Z,27.05
2023-01-22T01:49:38.105Z,26.77
2023-01-22T01:52:10.745Z,28.70
2023-01-22T01:54:39.377Z,28.48
2023-01-22T01:57:14.693Z,27.27
2023-01-22T01:59:42.976Z,25.98
2023-01-22T02:02:10.021Z,26.50
2023-01-22T02:04:36.902Z,27.42
2023-01-22T02:07:07.477Z,26.65
2023-01-22T02:09:34.594Z,26.52
2023-01-22T02:12:03.220Z,28.75
2023-01-22T02:14:37.380Z,28.95
2023-01-22T02:17:20.523Z,28.58
2023-01-22T02:19:48.037Z,27.58
2023-01-22T02:22:20.449Z,27.02
2023-01-22T02:24:47.268Z,27.58
2023-01-22T02:27:14.351Z,27.80
2023-01-22T02:29:41.260Z,27.67
2023-01-22T02:32:08.004Z,28.27
2023-01-22T02:34:34.761Z,27.35
2023-01-22T02:37:01.486Z,27.13
2023-01-22T02:39:28.635Z,25.60
2023-01-22T02:41:55.482Z,26.80
2023-01-22T02:44:22.494Z,25.08
2023-01-22T02:46:49.400Z,25.58
2023-01-22T02:49:16.255Z,26.70
2023-01-22T02:51:43.062Z,26.98
2023-01-22T02:54:09.828Z,25.63
2023-01-22T02:56:36.730Z,27.30
2023-01-22T02:59:04.070Z,25.92
2023-01-22T03:01:31.100Z,26.33
2023-01-22T03:04:01.610Z,24.90
2023-01-22T03:06:30.136Z,26.75
2023-01-22T03:09:00.961Z,25.63
2023-01-22T03:11:30.278Z,24.48
2023-01-22T03:14:16.148Z,25.25
2023-01-22T03:17:02.372Z,24.88
2023-01-22T03:19:48.356Z,23.98
2023-01-22T03:22:16.224Z,25.42
2023-01-22T03:24:44.149Z,26.95
2023-01-22T03:27:10.995Z,25.75
2023-01-22T03:29:38.460Z,27.58
2023-01-22T03:32:06.341Z,27.40
2023-01-22T03:34:33.456Z,27.70
2023-01-22T03:37:00.469Z,26.27
2023-01-22T03:39:28.206Z,24.48
2023-01-22T03:41:54.980Z,24.30
2023-01-22T03:44:21.703Z,24.42
2023-01-22T03:46:48.647Z,24.80
2023-01-22T03:49:15.455Z,25.30
2023-01-22T03:51:43.452Z,24.33
2023-01-22T03:54:14.904Z,24.08
2023-01-22T03:56:42.214Z,25.40
2023-01-22T03:59:10.287Z,25.88
2023-01-22T04:01:37.224Z,25.42
2023-01-22T04:04:04.201Z,23.50
2023-01-22T04:06:30.987Z,23.75
2023-01-22T04:08:57.730Z,23.92
2023-01-22T04:11:24.551Z,23.92
2023-01-22T04:13:51.323Z,24.80
2023-01-22T04:16:18.387Z,25.58
2023-01-22T04:18:45.256Z,24.38
2023-01-22T04:21:13.015Z,24.38
2023-01-22T04:23:39.804Z,25.58
2023-01-22T04:26:06.611Z,26.50
2023-01-22T04:28:33.379Z,23.70
2023-01-22T04:31:00.272Z,24.80
2023-01-22T04:33:27.139Z,25.40
2023-01-22T04:35:55.100Z,25.20
2023-01-22T04:38:22.272Z,24.70
2023-01-22T04:40:49.047Z,23.70
2023-01-22T04:43:15.859Z,25.45
2023-01-22T04:45:42.642Z,25.23
2023-01-22T04:48:11.035Z,25.50
2023-01-22T04:50:37.811Z,26.35
2023-01-22T04:53:05.065Z,25.60
2023-01-22T04:55:32.101Z,23.35
2023-01-22T04:58:00.057Z,23.48
2023-01-22T05:00:28.087Z,23.55
2023-01-22T05:02:59.844Z,26.13
2023-01-22T05:05:27.478Z,24.15
2023-01-22T05:07:54.310Z,24.92
2023-01-22T05:10:22.186Z,24.67
2023-01-22T05:12:49.429Z,25.65
2023-01-22T05:15:23.940Z,24.40
2023-01-22T05:17:51.431Z,24.95
2023-01-22T05:20:18.575Z,23.75
2023-01-22T05:22:45.645Z,23.40
2023-01-22T05:25:12.691Z,25.80
2023-01-22T05:27:39.471Z,24.60
2023-01-22T05:30:06.935Z,22.80
2023-01-22T05:32:33.796Z,24.33
2023-01-22T05:35:00.579Z,25.30
2023-01-22T05:37:27.391Z,23.75
2023-01-22T05:39:54.279Z,22.67
2023-01-22T05:42:21.114Z,24.60
2023-01-22T05:44:48.129Z,23.63
2023-01-22T05:47:15.407Z,24.13
2023-01-22T05:49:42.641Z,24.42
2023-01-22T05:52:10.917Z,24.52
2023-01-22T05:54:39.794Z,23.65
2023-01-22T05:57:07.167Z,23.10
2023-01-22T05:59:34.000Z,24.58
2023-01-22T06:02:01.089Z,22.85
2023-01-22T06:04:28.111Z,24.48
2023-01-22T06:06:54.965Z,22.77
2023-01-22T06:09:22.001Z,23.67
2023-01-22T06:11:48.767Z,23.30
2023-01-22T06:14:15.621Z,24.15
2023-01-22T06:16:42.491Z,23.55
2023-01-22T06:19:09.501Z,21.75
2023-01-22T06:21:36.294Z,23.30
2023-01-22T06:24:03.165Z,25.40
2023-01-22T06:26:29.917Z,22.85
2023-01-22T06:28:56.803Z,23.30
2023-01-22T06:31:23.661Z,23.98
2023-01-22T06:33:50.500Z,22.67
2023-01-22T06:36:17.261Z,23.02
2023-01-22T06:38:44.151Z,24.00
2023-01-22T06:41:11.090Z,23.77
2023-01-22T06:43:37.955Z,23.48
2023-01-22T06:46:05.565Z,23.15
2023-01-22T06:48:32.581Z,23.88
2023-01-22T06:51:02.489Z,23.48
2023-01-22T06:53:29.339Z,23.48
2023-01-22T06:55:59.643Z,22.30
2023-01-22T06:58:26.421Z,21.90
2023-01-22T07:00:53.177Z,21.60
2023-01-22T07:03:20.184Z,22.83
2023-01-22T07:05:47.084Z,22.08
2023-01-22T07:08:15.462Z,21.70
2023-01-22T07:10:42.371Z,22.02
2023-01-22T07:13:10.335Z,21.60
2023-01-22T07:15:37.190Z,20.45
2023-01-22T07:18:04.191Z,21.33
2023-01-22T07:20:31.225Z,20.90
2023-01-22T07:23:00.210Z,21.75
2023-01-22T07:25:27.935Z,20.73
2023-01-22T07:28:03.191Z,22.27
2023-01-22T07:30:30.591Z,22.05
2023-01-22T07:33:01.782Z,21.67
2023-01-22T07:35:29.559Z,22.35
2023-01-22T07:37:58.764Z,21.10
2023-01-22T07:40:26.600Z,21.25
2023-01-22T07:42:54.401Z,20.98
2023-01-22T07:45:22.238Z,20.08
2023-01-22T07:47:59.895Z,20.40
2023-01-22T07:50:31.257Z,19.02
2023-01-22T07:53:02.504Z,19.85
2023-01-22T07:55:33.905Z,20.60
2023-01-22T07:58:06.125Z,19.42
2023-01-22T08:00:35.300Z,21.20
2023-01-22T08:03:04.800Z,20.30
2023-01-22T08:05:31.668Z,21.17
2023-01-22T08:07:58.868Z,19.80
2023-01-22T08:10:25.812Z,19.95
2023-01-22T08:12:52.602Z,20.95
2023-01-22T08:15:19.695Z,19.92
2023-01-22T08:17:50.202Z,20.27
2023-01-22T08:20:17.741Z,21.25
2023-01-22T08:22:45.711Z,19.92
2023-01-22T08:25:12.587Z,20.25
2023-01-22T08:27:39.423Z,20.50
2023-01-22T08:30:08.789Z,20.73
2023-01-22T08:32:35.762Z,20.60
2023-01-22T08:35:02.662Z,19.92
2023-01-22T08:37:29.522Z,18.33
2023-01-22T08:39:56.323Z,20.05
2023-01-22T08:42:23.277Z,20.30
2023-01-22T08:44:50.086Z,20.48
2023-01-22T08:47:16.830Z,19.90
2023-01-22T08:49:43.659Z,20.25
2023-01-22T08:52:10.471Z,19.77
2023-01-22T08:54:37.217Z,19.27
2023-01-22T08:57:04.334Z,19.80
2023-01-22T08:59:31.350Z,19.20
2023-01-22T09:01:59.769Z,19.63
2023-01-22T09:04:27.375Z,18.30
2023-01-22T09:06:54.643Z,20.45
2023-01-22T09:09:21.698Z,18.48
2023-01-22T09:11:48.569Z,19.17
2023-01-22T09:14:15.306Z,18.30
2023-01-22T09:16:42.182Z,19.23
2023-01-22T09:19:10.266Z,17.67
2023-01-22T09:21:39.883Z,19.40
2023-01-22T09:24:07.736Z,18.42
2023-01-22T09:26:36.916Z,17.52
2023-01-22T09:29:05.917Z,17.83
2023-01-22T09:31:34.736Z,18.35
2023-01-22T09:34:01.950Z,17.95
2023-01-22T09:36:29.084Z,18.20
2023-01-22T09:38:56.429Z,17.70
2023-01-22T09:41:34.059Z,17.35
2023-01-22T09:44:16.271Z,20.75
2023-01-22T09:46:50.344Z,21.83
2023-01-22T09:49:20.038Z,23.88
2023-01-22T09:51:57.944Z,23.60
2023-01-22T09:54:26.033Z,23.40
2023-01-22T09:56:55.661Z,23.38
2023-01-22T09:59:25.981Z,23.83
2023-01-22T10:01:59.941Z,24.35
2023-01-22T10:04:37.071Z,22.63
2023-01-22T10:07:08.861Z,22.92
2023-01-22T10:09:36.211Z,20.55
2023-01-22T10:12:13.879Z,21.15
2023-01-22T10:14:43.022Z,20.38
2023-01-22T10:17:19.990Z,21.13
2023-01-22T10:19:50.652Z,21.17
2023-01-22T10:22:22.370Z,21.75
2023-01-22T10:24:49.999Z,22.35
2023-01-22T10:27:20.699Z,22.27
2023-01-22T10:30:08.010Z,20.55
2023-01-22T10:32:34.836Z,22.00
2023-01-22T10:35:19.411Z,20.90
2023-01-22T10:37:52.746Z,20.73
2023-01-22T10:40:27.166Z,20.48
2023-01-22T10:43:01.047Z,19.95
2023-01-22T10:45:27.963Z,21.80
2023-01-22T10:48:13.450Z,20.83
2023-01-22T10:50:41.569Z,20.60
2023-01-22T10:53:37.580Z,22.35
2023-01-22T10:56:12.291Z,20.40
2023-01-22T10:58:45.843Z,22.20
2023-01-22T11:01:28.753Z,21.20
2023-01-22T11:03:55.911Z,21.35
2023-01-22T11:06:29.133Z,20.90
2023-01-22T11:09:11.340Z,21.13
2023-01-22T11:11:42.934Z,21.70
2023-01-22T11:14:21.965Z,22.25
2023-01-22T11:16:52.002Z,22.50
2023-01-22T11:19:36.323Z,21.20
2023-01-22T11:22:11.747Z,21.70
2023-01-22T11:24:47.218Z,21.20
2023-01-22T11:27:43.079Z,21.50
2023-01-22T11:30:21.217Z,20.73
2023-01-22T11:32:57.232Z,20.77
2023-01-22T11:35:24.135Z,19.73
2023-01-22T11:38:15.981Z,19.83
2023-01-22T11:41:01.130Z,19.38
2023-01-22T11:43:46.127Z,20.00
2023-01-22T11:46:47.899Z,19.70
2023-01-22T11:49:29.743Z,20.00
2023-01-22T11:52:18.479Z,19.70
2023-01-22T11:55:17.572Z,19.63
2023-01-22T11:58:22.826Z,19.52
2023-01-22T12:01:20.651Z,19.00
2023-01-22T12:03:56.481Z,20.63
2023-01-22T12:06:54.300Z,19.90
2023-01-22T12:09:26.575Z,20.60
2023-01-22T12:12:13.287Z,22.63
2023-01-22T12:15:19.771Z,20.50
2023-01-22T12:17:52.480Z,21.00
2023-01-22T12:20:46.919Z,21.27
2023-01-22T12:23:25.130Z,20.67
2023-01-22T12:26:09.806Z,20.42
2023-01-22T12:28:41.422Z,20.45
2023-01-22T12:31:31.637Z,20.95
2023-01-22T12:34:03.141Z,21.23
2023-01-22T12:36:32.658Z,23.50
2023-01-22T12:39:23.420Z,22.20
2023-01-22T12:42:09.271Z,23.05
2023-01-22T12:45:17.390Z,22.38
2023-01-22T12:47:59.941Z,22.73
2023-01-22T12:50:27.207Z,24.63
2023-01-22T12:53:05.187Z,22.35
2023-01-22T12:55:38.314Z,23.92
2023-01-22T12:58:17.672Z,24.30
2023-01-22T13:00:44.555Z,25.58
2023-01-22T13:03:38.703Z,25.27
2023-01-22T13:06:31.493Z,25.42
2023-01-22T13:08:58.318Z,27.58
2023-01-22T13:11:39.596Z,25.92
2023-01-22T13:14:21.470Z,26.65
2023-01-22T13:16:55.516Z,26.85
2023-01-22T13:19:27.504Z,25.90
2023-01-22T13:21:59.004Z,24.87
2023-01-22T13:24:25.787Z,24.55
2023-01-22T13:26:52.540Z,23.95
2023-01-22T13:29:28.068Z,24.17
2023-01-22T13:32:04.384Z,21.95
2023-01-22T13:34:31.967Z,22.95
2023-01-22T13:36:59.062Z,21.05
2023-01-22T13:39:29.724Z,19.30
2023-01-22T13:42:02.139Z,18.95
2023-01-22T13:44:40.729Z,20.38
2023-01-22T13:47:07.870Z,21.35
2023-01-22T13:49:43.024Z,20.70
2023-01-22T13:52:16.187Z,19.30
2023-01-22T13:55:11.724Z,19.80
2023-01-22T13:57:45.297Z,15.07
2023-01-22T14:00:30.074Z,12.57
2023-01-22T14:02:58.195Z,11.23
2023-01-22T14:05:35.075Z,10.93
2023-01-22T14:08:07.664Z,10.00
2023-01-22T14:10:35.011Z,10.45
2023-01-22T14:13:07.369Z,10.52
2023-01-22T14:15:34.896Z,11.48
2023-01-22T14:18:08.634Z,10.45
2023-01-22T14:20:37.917Z,11.63
2023-01-22T14:23:04.694Z,11.18
2023-01-22T14:25:31.856Z,10.18
2023-01-22T14:28:00.173Z,11.55
2023-01-22T14:30:26.918Z,12.35
2023-01-22T14:32:53.747Z,11.00
2023-01-22T14:35:23.804Z,11.00
2023-01-22T14:37:52.195Z,11.00
2023-01-22T14:40:21.246Z,11.43
2023-01-22T14:42:48.477Z,10.13
2023-01-22T14:45:16.815Z,11.40
2023-01-22T14:47:43.890Z,13.05
2023-01-22T14:50:11.491Z,10.98
2023-01-22T14:52:38.642Z,11.13
2023-01-22T14:55:06.302Z,11.30
2023-01-22T14:57:33.064Z,11.80
2023-01-22T15:00:01.545Z,11.32
2023-01-22T15:02:28.337Z,10.52
2023-01-22T15:04:55.367Z,13.38
2023-01-22T15:07:22.138Z,12.10
2023-01-22T15:09:48.850Z,9.77
2023-01-22T15:12:15.595Z,9.57
2023-01-22T15:14:42.671Z,10.70
2023-01-22T15:17:09.497Z,11.10
2023-01-22T15:19:41.228Z,11.65
2023-01-22T15:22:09.008Z,11.75
2023-01-22T15:24:35.797Z,10.80
2023-01-22T15:27:02.603Z,10.77
2023-01-22T15:29:29.335Z,12.18
2023-01-22T15:31:56.107Z,11.27
2023-01-22T15:34:23.830Z,12.05
2023-01-22T15:36:50.609Z,11.65
2023-01-22T15:39:17.346Z,11.93
2023-01-22T15:41:44.212Z,12.05
2023-01-22T15:44:12.950Z,12.38
2023-01-22T15:46:41.966Z,13.02
2023-01-22T15:49:10.264Z,12.98
2023-01-22T15:51:37.194Z,13.63
2023-01-22T15:54:06.711Z,13.73
2023-01-22T15:56:36.551Z,12.70
2023-01-22T15:59:04.665Z,13.52
2023-01-22T16:01:31.764Z,12.18
2023-01-22T16:04:00.655Z,14.02
2023-01-22T16:06:29.538Z,12.23
2023-01-22T16:08:58.204Z,12.48
2023-01-22T16:11:26.823Z,13.02
2023-01-22T16:13:53.736Z,13.82
2023-01-22T16:16:21.776Z,13.98
2023-01-22T16:18:50.045Z,13.00
2023-01-22T16:21:18.422Z,12.98
2023-01-22T16:23:46.289Z,12.13
2023-01-22T16:26:18.490Z,13.50
2023-01-22T16:28:48.453Z,13.10
2023-01-22T16:31:18.890Z,12.70
2023-01-22T16:33:47.571Z,13.38
2023-01-22T16:36:16.834Z,12.77
2023-01-22T16:38:44.054Z,13.20
2023-01-22T16:41:27.735Z,13.68
2023-01-22T16:44:01.631Z,13.32
2023-01-22T16:46:30.909Z,13.82
2023-01-22T16:49:05.126Z,14.35
2023-01-22T16:51:37.937Z,13.85
2023-01-22T16:56:33.998Z,14.55
2023-01-22T16:59:01.542Z,14.32
2023-01-22T17:01:31.527Z,14.52
2023-01-22T17:03:58.359Z,14.88
2023-01-22T17:06:37.576Z,15.77
2023-01-22T17:09:04.399Z,15.30
2023-01-22T17:11:31.274Z,15.80
2023-01-22T17:13:59.719Z,15.65
2023-01-22T17:16:26.541Z,14.68
2023-01-22T17:18:54.841Z,15.68
2023-01-22T17:21:22.781Z,15.98
2023-01-22T17:23:49.585Z,16.73
2023-01-22T17:26:17.091Z,16.38
2023-01-22T17:28:44.293Z,16.80
2023-01-22T17:31:17.749Z,15.82
2023-01-22T17:33:45.041Z,16.65
2023-01-22T17:36:14.848Z,15.75
2023-01-22T17:38:42.394Z,15.65
2023-01-22T17:41:12.359Z,16.38
2023-01-22T17:43:39.079Z,16.30
2023-01-22T17:46:11.817Z,15.93
2023-01-22T17:48:38.968Z,16.98
2023-01-22T17:51:08.285Z,17.13
2023-01-22T17:53:38.081Z,16.95
2023-01-22T17:56:20.078Z,16.80
2023-01-22T17:58:50.315Z,18.05
2023-01-22T18:01:19.782Z,17.17
2023-01-22T18:03:47.437Z,16.17
2023-01-22T18:06:15.025Z,18.17
2023-01-22T18:08:42.533Z,17.23
2023-01-22T18:11:12.579Z,18.63
2023-01-22T18:13:39.650Z,16.30
2023-01-22T18:16:09.049Z,17.58
2023-01-22T18:18:36.109Z,17.50
2023-01-22T18:21:03.169Z,16.85
2023-01-22T18:23:29.970Z,17.92
2023-01-22T18:25:58.266Z,17.75
2023-01-22T18:28:26.874Z,17.05
2023-01-22T18:30:54.373Z,17.38
2023-01-22T18:33:21.737Z,18.15
2023-01-22T18:35:51.234Z,18.23
2023-01-22T18:38:25.167Z,17.63
2023-01-22T18:40:53.056Z,18.33
2023-01-22T18:43:19.855Z,18.05
2023-01-22T18:45:46.657Z,17.90
2023-01-22T18:48:15.986Z,18.10
2023-01-22T18:50:42.941Z,18.30
2023-01-22T18:53:09.942Z,19.23
2023-01-22T18:55:36.938Z,19.42
2023-01-22T18:58:27.652Z,19.48
2023-01-22T19:00:59.192Z,19.25
2023-01-22T19:03:26.940Z,20.25
2023-01-22T19:05:54.645Z,19.08
2023-01-22T19:08:22.862Z,19.48
2023-01-22T19:10:49.649Z,20.25
2023-01-22T19:13:16.605Z,20.60
2023-01-22T19:15:43.680Z,20.00
2023-01-22T19:18:10.664Z,20.05
2023-01-22T19:20:39.450Z,20.83
2023-01-22T19:23:06.465Z,20.50
2023-01-22T19:25:33.281Z,20.52
2023-01-22T19:28:00.147Z,20.38
2023-01-22T19:30:26.952Z,20.13
2023-01-22T19:32:55.536Z,20.35
2023-01-22T19:35:24.118Z,20.58
2023-01-22T19:37:54.060Z,19.63
2023-01-22T19:40:21.148Z,20.20
2023-01-22T19:42:48.552Z,20.33
2023-01-22T19:45:16.061Z,19.88
2023-01-22T19:47:42.899Z,20.50
2023-01-22T19:50:10.544Z,20.13
2023-01-22T19:52:37.323Z,19.30
2023-01-22T19:55:04.330Z,19.60
2023-01-22T19:57:33.206Z,20.58
2023-01-22T20:00:00.691Z,19.80
2023-01-22T20:02:27.987Z,20.63
2023-01-22T20:04:54.836Z,20.42
2023-01-22T20:07:22.579Z,20.45
2023-01-22T20:09:49.404Z,20.88
2023-01-22T20:12:16.349Z,20.55
2023-01-22T20:14:43.796Z,20.42
2023-01-22T20:17:12.975Z,22.20
2023-01-22T20:19:42.317Z,20.92
2023-01-22T20:22:10.828Z,21.17
2023-01-22T20:24:40.305Z,21.27
2023-01-22T20:27:08.446Z,21.88
2023-01-22T20:29:38.364Z,21.33
2023-01-22T20:32:05.843Z,20.83
2023-01-22T20:34:34.289Z,21.85
2023-01-22T20:37:01.259Z,23.33
2023-01-22T20:39:28.211Z,22.38
2023-01-22T20:41:55.297Z,22.65
2023-01-22T20:44:22.952Z,21.52
2023-01-22T20:46:51.046Z,23.10
2023-01-22T20:49:18.034Z,22.25
2023-01-22T20:51:44.983Z,22.13
2023-01-22T20:54:12.180Z,22.67
2023-01-22T20:56:39.168Z,21.23
2023-01-22T20:59:12.607Z,22.10
2023-01-22T21:01:40.354Z,21.25
2023-01-22T21:04:12.065Z,21.02
2023-01-22T21:06:40.191Z,21.00
2023-01-22T21:09:08.304Z,20.50
2023-01-22T21:11:36.944Z,21.13
2023-01-22T21:14:05.376Z,20.60
2023-01-22T21:16:38.890Z,20.77
2023-01-22T21:19:12.935Z,20.58
2023-01-22T21:21:42.895Z,21.13
2023-01-22T21:24:11.537Z,20.45
2023-01-22T21:26:43.545Z,22.00
2023-01-22T21:29:16.614Z,21.90
2023-01-22T21:31:44.766Z,20.80
2023-01-22T21:34:12.045Z,20.73
2023-01-22T21:36:45.157Z,23.23
2023-01-22T21:39:14.852Z,21.83
2023-01-22T21:41:42.411Z,22.00
2023-01-22T21:44:37.114Z,21.70
2023-01-22T21:47:05.263Z,22.05
2023-01-22T21:49:34.823Z,22.85
2023-01-22T21:52:09.444Z,21.90
2023-01-22T21:54:38.940Z,22.80
2023-01-22T21:57:06.764Z,25.40
2023-01-22T21:59:33.811Z,28.20
2023-01-22T22:02:00.931Z,25.90
2023-01-22T22:04:28.036Z,25.65
2023-01-22T22:06:55.059Z,27.55
2023-01-22T22:09:27.880Z,27.52
2023-01-22T22:11:59.778Z,26.85
2023-01-22T22:14:27.373Z,25.90
2023-01-22T22:16:55.163Z,28.17
2023-01-22T22:19:23.285Z,28.20
2023-01-22T22:21:51.192Z,28.08
2023-01-22T22:24:19.141Z,28.42
2023-01-22T22:26:46.089Z,30.05
2023-01-22T22:29:13.152Z,29.33
2023-01-22T22:31:40.103Z,30.17
2023-01-22T22:34:07.447Z,29.85
2023-01-22T22:36:34.375Z,28.95
2023-01-22T22:39:03.959Z,28.67
2023-01-22T22:41:32.794Z,26.95
2023-01-22T22:44:00.160Z,28.48
2023-01-22T22:46:28.146Z,27.52
2023-01-22T22:48:57.001Z,27.15
2023-01-22T22:51:25.848Z,26.92
2023-01-22T22:53:59.090Z,27.45
2023-01-22T22:56:27.168Z,25.52
2023-01-22T22:58:55.249Z,25.73
2023-01-22T23:01:24.154Z,26.05
2023-01-22T23:03:51.557Z,27.05
2023-01-22T23:06:21.477Z,27.08
2023-01-22T23:08:53.514Z,26.25
2023-01-22T23:11:32.554Z,25.83
2023-01-22T23:14:03.674Z,26.25
2023-01-22T23:16:33.344Z,27.35
2023-01-22T23:19:03.166Z,25.52
2023-01-22T23:21:30.576Z,25.73
2023-01-22T23:23:57.431Z,24.50
2023-01-22T23:26:30.104Z,25.60
2023-01-22T23:28:59.018Z,25.33
2023-01-22T23:31:27.340Z,28.00
2023-01-22T23:33:58.523Z,26.88
2023-01-22T23:36:26.301Z,27.85
2023-01-22T23:41:24.719Z,26.73
2023-01-22T23:43:51.740Z,26.85
2023-01-22T23:46:21.852Z,27.40
2023-01-22T23:48:49.668Z,28.52
2023-01-22T23:51:18.016Z,27.98
2023-01-22T23:53:48.541Z,27.15
2023-01-22T23:56:15.889Z,28.30
2023-01-22T23:58:43.444Z,28.48
